Time;durP1;ratioP1;P1;durP2;ratioP2;P2;SDS_P1;SDS_P2;PMS_P1;PMS_P2;Temp;Humidity;BMP_temperature;BMP_pressure;BME280_temperature;BME280_humidity;BME280_pressure;Samples;Min_cycle;Max_cycle;Signal;HPM_P1;HPM_P2
2023/03/30 00:00:28;;;;;;;6.32;2.42;;;;;;;12.59;77.98;100556.72;5057726;28;20016;-62
2023/03/30 00:02:53;;;;;;;5.15;2.72;;;;;;;12.59;78.27;100548.72;5045702;28;20029;-63
2023/03/30 00:05:19;;;;;;;6.30;2.45;;;;;;;12.62;77.83;100559.09;5069973;28;20086;-63
2023/03/30 00:07:44;;;;;;;4.32;2.38;;;;;;;12.61;78.24;100556.56;5067581;28;20075;-62
2023/03/30 00:10:18;;;;;;;9.82;2.83;;;;;;;12.60;78.21;100550.41;5068003;28;20024;-62
2023/03/30 00:12:49;;;;;;;7.38;2.65;;;;;;;12.57;78.12;100532.00;5068854;28;20027;-63
2023/03/30 00:15:17;;;;;;;5.35;2.25;;;;;;;12.55;77.81;100532.16;5071501;28;20423;-63
2023/03/30 00:17:43;;;;;;;4.28;2.30;;;;;;;12.53;77.85;100526.13;5072604;28;20441;-63
2023/03/30 00:20:12;;;;;;;8.35;2.60;;;;;;;12.48;77.99;100525.69;5064225;28;20032;-63
2023/03/30 00:22:42;;;;;;;5.18;2.90;;;;;;;12.46;77.92;100532.16;5056505;28;20035;-63
2023/03/30 00:25:11;;;;;;;3.33;2.35;;;;;;;12.44;77.94;100518.97;5070155;28;20146;-63
2023/03/30 00:27:36;;;;;;;6.35;2.75;;;;;;;12.44;78.09;100526.09;5041150;28;20047;-63
2023/03/30 00:30:07;;;;;;;5.10;2.65;;;;;;;12.44;77.64;100524.31;5054654;28;20028;-63
2023/03/30 00:32:33;;;;;;;7.05;2.45;;;;;;;12.44;77.70;100531.44;5069708;28;20381;-63
2023/03/30 00:35:00;;;;;;;7.63;2.47;;;;;;;12.46;77.56;100521.50;5069955;28;20024;-63
2023/03/30 00:37:26;;;;;;;6.97;2.63;;;;;;;12.45;77.22;100511.81;5070152;28;20075;-62
2023/03/30 00:39:52;;;;;;;7.00;2.42;;;;;;;12.44;77.41;100502.13;5071535;28;20103;-63
2023/03/30 00:42:18;;;;;;;9.38;2.50;;;;;;;12.43;77.37;100501.31;5069956;28;20107;-63
2023/03/30 00:45:21;;;;;;;5.20;2.67;;;;;;;12.43;78.30;100508.47;5057562;28;20041;-63
2023/03/30 00:48:14;;;;;;;12.63;2.83;;;;;;;12.38;78.62;100492.88;5044512;28;20025;-63
2023/03/30 00:50:47;;;;;;;5.20;2.22;;;;;;;12.33;78.06;100482.63;5063262;28;20082;-63
2023/03/30 00:53:27;;;;;;;4.63;2.70;;;;;;;12.30;78.20;100484.75;5064377;28;20025;-63
2023/03/30 00:55:54;;;;;;;4.22;2.60;;;;;;;12.26;78.06;100481.53;5050618;28;20028;-63
2023/03/30 00:58:21;;;;;;;4.10;2.10;;;;;;;12.23;78.06;100468.47;5068782;28;20024;-63
2023/03/30 01:00:47;;;;;;;4.68;2.40;;;;;;;12.24;78.10;100471.97;5063093;28;20071;-63
2023/03/30 01:03:37;;;;;;;5.30;2.50;;;;;;;12.22;78.76;100480.09;5066042;28;20025;-63
2023/03/30 01:06:06;;;;;;;4.57;2.20;;;;;;;12.21;77.91;100476.59;5057489;28;20037;-63
2023/03/30 01:08:31;;;;;;;9.80;2.43;;;;;;;12.23;78.55;100470.31;5057413;28;20512;-63
2023/03/30 01:11:00;;;;;;;4.88;2.63;;;;;;;12.20;78.75;100464.25;5068013;28;20314;-63
2023/03/30 01:13:26;;;;;;;8.27;2.27;;;;;;;12.19;78.77;100467.06;5069359;28;20115;-63
2023/03/30 01:16:24;;;;;;;5.70;2.10;;;;;;;12.17;78.92;100464.56;5066192;28;20035;-63
2023/03/30 01:19:31;;;;;;;5.90;2.28;;;;;;;12.16;79.19;100470.84;5060956;28;20029;-63
2023/03/30 01:21:59;;;;;;;4.88;2.25;;;;;;;12.11;79.37;100483.72;5052200;28;20075;-63
2023/03/30 01:25:10;;;;;;;6.10;2.10;;;;;;;12.09;79.41;100468.84;5064776;28;20032;-63
2023/03/30 01:27:48;;;;;;;5.85;2.50;;;;;;;12.03;79.96;100470.25;5039389;28;20029;-63
2023/03/30 01:30:43;;;;;;;5.30;2.50;;;;;;;12.02;80.04;100481.88;5057962;28;20037;-63
2023/03/30 01:33:17;;;;;;;7.30;2.78;;;;;;;12.08;79.69;100467.19;5059130;28;20120;-63
2023/03/30 01:35:58;;;;;;;7.03;3.03;;;;;;;12.07;80.43;100471.66;5067029;28;20032;-63
2023/03/30 01:38:35;;;;;;;5.65;2.95;;;;;;;12.08;80.42;100467.19;5056102;28;20041;-63
2023/03/30 01:41:24;;;;;;;5.93;2.42;;;;;;;12.15;79.97;100470.97;5060616;28;20436;-63
2023/03/30 01:44:17;;;;;;;4.28;2.13;;;;;;;12.24;80.09;100446.22;5050530;28;20035;-63
2023/03/30 01:46:58;;;;;;;5.47;2.15;;;;;;;12.31;79.72;100444.66;5057436;28;20551;-62
2023/03/30 01:50:01;;;;;;;6.25;1.92;;;;;;;12.38;79.32;100439.63;5067090;28;20496;-62
2023/03/30 01:52:37;;;;;;;5.57;2.17;;;;;;;12.40;78.91;100442.97;5060100;28;20189;-63
2023/03/30 01:55:16;;;;;;;6.95;2.03;;;;;;;12.42;79.07;100450.84;5068072;28;20060;-63
2023/03/30 01:57:54;;;;;;;7.28;1.98;;;;;;;12.40;78.94;100470.44;5051229;28;20044;-63
2023/03/30 02:00:22;;;;;;;6.65;2.25;;;;;;;12.43;78.71;100476.50;5071573;28;20032;-63
2023/03/30 02:02:53;;;;;;;4.73;2.60;;;;;;;12.45;78.25;100459.38;5071266;28;20029;-63
2023/03/30 02:05:21;;;;;;;6.03;1.90;;;;;;;12.47;78.04;100454.75;5062837;28;20514;-63
2023/03/30 02:07:52;;;;;;;4.60;2.10;;;;;;;12.48;78.13;100471.59;5061469;28;20104;-63
2023/03/30 02:10:20;;;;;;;6.40;2.03;;;;;;;12.48;78.06;100475.09;5056012;28;20572;-63
2023/03/30 02:12:45;;;;;;;7.90;2.10;;;;;;;12.45;78.44;100478.03;5069187;28;20016;-63
2023/03/30 02:15:14;;;;;;;9.43;2.60;;;;;;;12.45;78.66;100471.88;5071636;28;20091;-63
2023/03/30 02:17:41;;;;;;;7.35;2.00;;;;;;;12.40;78.92;100464.28;5068133;28;20394;-62
2023/03/30 02:20:11;;;;;;;3.95;2.17;;;;;;;12.38;79.03;100455.59;5049492;28;20257;-63
2023/03/30 02:22:37;;;;;;;6.75;2.28;;;;;;;12.34;78.94;100455.03;5036879;28;20029;-62
2023/03/30 02:25:05;;;;;;;4.30;1.90;;;;;;;12.32;79.54;100456.16;5043795;28;20482;-63
2023/03/30 02:27:32;;;;;;;6.03;2.17;;;;;;;12.32;79.15;100453.47;5067479;28;20103;-62
2023/03/30 02:29:58;;;;;;;7.38;2.40;;;;;;;12.33;79.41;100457.84;5052685;28;20071;-63
2023/03/30 02:32:26;;;;;;;6.20;2.00;;;;;;;12.32;79.66;100464.13;5047217;28;20577;-62
2023/03/30 02:35:18;;;;;;;7.22;2.75;;;;;;;12.32;79.58;100449.03;5070100;28;20040;-62
2023/03/30 02:38:00;;;;;;;5.07;2.28;;;;;;;12.30;79.55;100450.97;5042054;28;20029;-62
2023/03/30 02:40:26;;;;;;;5.60;2.53;;;;;;;12.33;79.22;100453.34;5061243;28;20040;-62
2023/03/30 02:43:12;;;;;;;6.45;2.83;;;;;;;12.33;80.16;100458.66;5057918;28;20029;-62
2023/03/30 02:45:50;;;;;;;6.50;2.33;;;;;;;12.33;80.17;100449.84;5062502;28;20090;-61
2023/03/30 02:48:50;;;;;;;5.78;2.20;;;;;;;12.33;80.22;100457.84;5067068;28;20037;-62
2023/03/30 02:51:24;;;;;;;5.05;2.10;;;;;;;12.35;79.95;100443.38;5062573;28;20044;-62
2023/03/30 02:54:04;;;;;;;4.57;2.00;;;;;;;12.38;79.73;100451.09;5056758;28;20029;-62
2023/03/30 02:56:38;;;;;;;6.72;2.20;;;;;;;12.38;79.56;100453.78;5058847;28;20115;-62
2023/03/30 02:59:15;;;;;;;7.50;2.33;;;;;;;12.45;79.38;100453.22;5072079;28;20331;-63
2023/03/30 03:01:50;;;;;;;5.30;2.15;;;;;;;12.46;79.25;100446.94;5063866;28;20068;-62
2023/03/30 03:04:17;;;;;;;6.55;2.10;;;;;;;12.49;79.29;100446.63;5072441;28;20035;-63
2023/03/30 03:06:43;;;;;;;7.82;2.45;;;;;;;12.53;78.65;100437.38;5069317;28;20032;-62
2023/03/30 03:09:08;;;;;;;4.93;2.05;;;;;;;12.54;78.90;100436.38;5072854;28;20111;-62
2023/03/30 03:11:34;;;;;;;9.57;2.30;;;;;;;12.53;79.25;100432.88;5070243;28;20028;-62
2023/03/30 03:13:59;;;;;;;6.53;2.20;;;;;;;12.54;79.40;100439.03;5073510;28;20056;-62
2023/03/30 03:16:25;;;;;;;5.85;2.00;;;;;;;12.56;78.80;100450.44;5060544;28;20477;-61
2023/03/30 03:18:51;;;;;;;8.15;1.80;;;;;;;12.53;78.91;100435.56;5072687;28;20043;-62
2023/03/30 03:21:16;;;;;;;3.38;1.80;;;;;;;12.53;79.49;100446.22;5067385;28;20462;-62
2023/03/30 03:23:42;;;;;;;3.97;2.10;;;;;;;12.53;79.12;100438.22;5072711;28;20032;-62
2023/03/30 03:26:08;;;;;;;5.15;2.20;;;;;;;12.53;79.13;100429.41;5069150;28;20111;-62
2023/03/30 03:28:34;;;;;;;5.93;2.30;;;;;;;12.55;78.45;100430.09;5064037;28;20549;-62
2023/03/30 03:31:01;;;;;;;3.30;1.92;;;;;;;12.56;78.68;100439.78;5066109;28;20107;-62
2023/03/30 03:33:27;;;;;;;4.35;2.10;;;;;;;12.60;78.01;100433.16;5062310;28;20031;-62
2023/03/30 03:35:53;;;;;;;4.57;2.03;;;;;;;12.58;78.58;100433.31;5047060;28;20054;-62
2023/03/30 03:38:23;;;;;;;3.90;2.00;;;;;;;12.58;78.64;100432.47;5071593;28;20025;-63
2023/03/30 03:40:53;;;;;;;4.93;2.00;;;;;;;12.58;78.27;100427.97;5069115;28;20087;-61
2023/03/30 03:43:18;;;;;;;6.28;2.00;;;;;;;12.58;78.31;100427.97;5056563;28;20032;-62
2023/03/30 03:45:45;;;;;;;7.13;1.98;;;;;;;12.57;77.94;100431.66;5068837;28;20381;-62
2023/03/30 03:48:11;;;;;;;4.38;2.35;;;;;;;12.59;78.00;100421.69;5056020;28;20086;-62
2023/03/30 03:50:37;;;;;;;5.18;1.90;;;;;;;12.63;77.32;100419.56;5065393;28;20378;-63
2023/03/30 03:53:02;;;;;;;7.32;2.13;;;;;;;12.65;76.81;100422.94;5074281;28;20100;-63
2023/03/30 03:55:28;;;;;;;4.85;1.92;;;;;;;12.67;76.63;100418.28;5067881;28;20035;-62
2023/03/30 03:57:54;;;;;;;5.60;2.10;;;;;;;12.68;76.78;100414.66;5070389;28;20063;-62
2023/03/30 04:00:20;;;;;;;5.60;1.88;;;;;;;12.70;76.57;100425.16;5068985;28;20029;-62
2023/03/30 04:02:45;;;;;;;6.18;1.90;;;;;;;12.69;76.36;100431.47;5062417;28;20028;-62
2023/03/30 04:05:10;;;;;;;3.60;2.05;;;;;;;12.70;76.33;100420.69;5052935;28;20036;-62
2023/03/30 04:07:37;;;;;;;5.32;2.38;;;;;;;12.71;76.25;100413.53;5070048;28;20021;-62
2023/03/30 04:10:04;;;;;;;6.00;2.13;;;;;;;12.72;76.83;100412.53;5066372;28;20025;-62
2023/03/30 04:12:30;;;;;;;5.82;1.98;;;;;;;12.71;76.92;100418.88;5049944;28;20441;-62
2023/03/30 04:14:55;;;;;;;7.00;2.08;;;;;;;12.68;77.42;100413.81;5053043;28;20108;-62
2023/03/30 04:17:24;;;;;;;8.38;2.22;;;;;;;12.67;77.64;100410.28;5053889;28;20116;-62
2023/03/30 04:19:52;;;;;;;6.80;2.05;;;;;;;12.64;77.48;100399.09;5064627;28;20024;-62
2023/03/30 04:22:25;;;;;;;6.45;2.40;;;;;;;12.61;77.50;100405.56;5060701;28;20526;-61
2023/03/30 04:24:51;;;;;;;5.75;2.13;;;;;;;12.59;77.89;100400.38;5059408;28;20534;-62
2023/03/30 04:27:17;;;;;;;6.18;2.50;;;;;;;12.56;78.28;100407.81;5055925;28;20091;-62
2023/03/30 04:29:43;;;;;;;6.95;2.33;;;;;;;12.55;78.50;100400.78;5036512;28;20030;-62
2023/03/30 04:32:12;;;;;;;6.20;1.92;;;;;;;12.51;79.18;100402.88;5054857;28;20036;-63
2023/03/30 04:34:41;;;;;;;6.30;2.67;;;;;;;12.48;78.97;100387.19;5057144;28;20044;-62
2023/03/30 04:37:10;;;;;;;8.18;2.53;;;;;;;12.45;79.36;100392.78;5070249;28;20021;-60
2023/03/30 04:39:35;;;;;;;6.75;2.30;;;;;;;12.44;79.24;100387.59;5069407;28;20020;-61
2023/03/30 04:42:05;;;;;;;5.95;2.33;;;;;;;12.40;79.81;100379.06;5062122;28;20032;-61
2023/03/30 04:44:30;;;;;;;6.43;2.20;;;;;;;12.36;79.98;100380.34;5063689;28;20029;-61
2023/03/30 04:46:55;;;;;;;6.88;2.10;;;;;;;12.31;79.74;100382.59;5072075;28;20043;-63
2023/03/30 04:49:21;;;;;;;9.40;1.95;;;;;;;12.28;79.93;100377.53;5064112;28;20036;-63
2023/03/30 04:51:46;;;;;;;5.43;1.90;;;;;;;12.27;79.58;100370.50;5055710;28;20116;-63
2023/03/30 04:54:12;;;;;;;4.80;2.40;;;;;;;12.24;79.89;100382.31;5052311;28;20039;-63
2023/03/30 04:56:37;;;;;;;5.85;2.00;;;;;;;12.21;79.55;100379.91;5072563;28;20104;-63
2023/03/30 04:59:03;;;;;;;5.22;2.17;;;;;;;12.19;79.79;100392.50;5066417;28;20031;-62
2023/03/30 05:01:28;;;;;;;5.07;2.10;;;;;;;12.17;79.79;100391.81;5072560;28;20020;-63
2023/03/30 05:03:53;;;;;;;5.32;2.30;;;;;;;12.15;80.71;100388.44;5049524;28;20029;-63
2023/03/30 05:06:20;;;;;;;5.78;1.88;;;;;;;12.13;82.04;100401.06;5071415;28;20525;-63
2023/03/30 05:08:45;;;;;;;8.13;2.53;;;;;;;12.07;84.59;100420.25;5051891;28;20032;-64
2023/03/30 05:11:11;;;;;;;4.85;2.40;;;;;;;12.03;86.28;100431.16;5056147;28;20409;-63
2023/03/30 05:13:36;;;;;;;6.43;2.55;;;;;;;11.99;89.66;100429.75;5067167;28;20107;-63
2023/03/30 05:16:02;;;;;;;6.72;2.78;;;;;;;11.93;91.48;100430.31;5068964;28;20095;-63
2023/03/30 05:18:27;;;;;;;5.43;2.92;;;;;;;11.88;92.78;100429.00;5066999;28;20024;-63
2023/03/30 05:20:57;;;;;;;7.72;2.80;;;;;;;11.80;94.16;100438.50;5070405;28;20021;-63
2023/03/30 05:23:23;;;;;;;5.85;2.75;;;;;;;11.75;95.03;100451.34;5068263;28;20202;-63
2023/03/30 05:25:49;;;;;;;9.73;3.20;;;;;;;11.68;97.26;100442.25;5047171;28;20087;-63
2023/03/30 05:28:15;;;;;;;11.57;3.20;;;;;;;11.62;98.12;100448.09;5056349;28;20116;-63
2023/03/30 05:30:41;;;;;;;6.97;3.08;;;;;;;11.57;99.15;100450.31;5047222;28;20030;-63
2023/03/30 05:33:08;;;;;;;9.05;3.20;;;;;;;11.51;100.00;100450.84;5067248;28;20427;-63
2023/03/30 05:35:35;;;;;;;7.72;3.10;;;;;;;11.45;100.00;100454.88;5065785;28;20033;-63
2023/03/30 05:38:00;;;;;;;11.07;3.38;;;;;;;11.39;100.00;100456.28;5071893;28;20025;-63
2023/03/30 05:40:26;;;;;;;12.38;3.45;;;;;;;11.34;100.00;100463.81;5065837;28;20070;-63
2023/03/30 05:42:51;;;;;;;8.13;3.33;;;;;;;11.28;100.00;100474.97;5062635;28;20119;-63
2023/03/30 05:45:16;;;;;;;9.48;3.25;;;;;;;11.22;100.00;100470.97;5060896;28;20029;-63
2023/03/30 05:47:41;;;;;;;4.05;3.03;;;;;;;11.19;100.00;100463.31;5071571;28;20028;-63
2023/03/30 05:50:08;;;;;;;7.53;3.25;;;;;;;11.14;100.00;100451.34;5071775;28;20021;-63
2023/03/30 05:52:33;;;;;;;6.55;3.05;;;;;;;11.10;100.00;100438.31;5038960;28;20049;-64
2023/03/30 05:54:59;;;;;;;11.10;2.88;;;;;;;11.07;100.00;100454.56;5053239;28;20029;-64
2023/03/30 05:57:24;;;;;;;10.45;2.90;;;;;;;11.05;100.00;100455.66;5054994;28;20024;-64
2023/03/30 05:59:49;;;;;;;7.40;2.78;;;;;;;11.01;100.00;100462.22;5055793;28;20029;-65
2023/03/30 06:02:16;;;;;;;11.38;3.70;;;;;;;10.97;100.00;100477.53;5055194;28;20061;-64
2023/03/30 06:04:42;;;;;;;10.68;3.60;;;;;;;10.92;100.00;100467.31;5043925;28;20112;-64
2023/03/30 06:07:07;;;;;;;10.60;3.67;;;;;;;10.90;100.00;100463.09;5035652;28;20128;-64
2023/03/30 06:09:33;;;;;;;10.07;3.38;;;;;;;10.88;100.00;100471.19;5047913;28;20355;-64
2023/03/30 06:11:59;;;;;;;8.88;3.78;;;;;;;10.88;100.00;100475.69;5051940;28;20094;-64
2023/03/30 06:14:25;;;;;;;9.02;3.30;;;;;;;10.85;100.00;100474.09;5045593;28;20055;-64
2023/03/30 06:16:50;;;;;;;11.88;3.70;;;;;;;10.84;100.00;100485.72;5048637;28;20041;-64
2023/03/30 06:19:16;;;;;;;9.85;3.10;;;;;;;10.86;100.00;100472.31;5048960;28;20071;-64
2023/03/30 06:21:42;;;;;;;9.27;3.58;;;;;;;10.86;100.00;100480.28;5044576;28;20053;-64
2023/03/30 06:24:07;;;;;;;15.25;3.60;;;;;;;10.84;100.00;100490.16;5049497;28;20424;-64
2023/03/30 06:26:32;;;;;;;9.07;3.30;;;;;;;10.83;100.00;100484.03;5053039;28;20041;-64
2023/03/30 06:28:58;;;;;;;11.95;3.67;;;;;;;10.86;100.00;100480.28;5042623;28;20040;-63
2023/03/30 06:31:24;;;;;;;10.00;3.42;;;;;;;10.86;100.00;100493.56;5059731;28;20037;-64
2023/03/30 06:33:50;;;;;;;11.00;3.80;;;;;;;10.82;100.00;100486.81;5062658;28;20086;-64
2023/03/30 06:36:15;;;;;;;14.75;3.30;;;;;;;10.79;100.00;100487.91;5060370;28;20127;-64
2023/03/30 06:38:44;;;;;;;13.82;3.65;;;;;;;10.78;100.00;100488.88;5057171;28;20457;-64
2023/03/30 06:41:11;;;;;;;8.98;3.22;;;;;;;10.79;100.00;100489.72;5060525;28;20041;-63
2023/03/30 06:43:37;;;;;;;10.95;3.33;;;;;;;10.80;100.00;100496.72;5046138;28;20025;-63
2023/03/30 06:46:04;;;;;;;9.45;3.45;;;;;;;10.80;100.00;100491.41;5055372;28;20471;-63
2023/03/30 06:48:30;;;;;;;12.38;3.90;;;;;;;10.83;100.00;100494.66;5058217;28;20120;-63
2023/03/30 06:50:56;;;;;;;11.93;2.90;;;;;;;10.83;100.00;100496.47;5044057;28;20124;-63
2023/03/30 06:53:23;;;;;;;11.60;2.75;;;;;;;10.83;100.00;100494.66;5068985;28;20090;-63
2023/03/30 06:55:56;;;;;;;12.73;2.88;;;;;;;10.85;100.00;100484.72;5055209;28;20063;-63
2023/03/30 06:58:23;;;;;;;11.85;3.00;;;;;;;10.86;100.00;100491.75;5045831;28;20112;-64
2023/03/30 07:00:49;;;;;;;6.30;2.63;;;;;;;10.88;100.00;100492.44;5066214;28;20045;-63
2023/03/30 07:03:18;;;;;;;9.18;3.25;;;;;;;10.91;100.00;100502.81;5057731;28;20021;-63
2023/03/30 07:05:48;;;;;;;9.90;2.95;;;;;;;10.93;100.00;100500.88;5048259;28;20449;-64
2023/03/30 07:08:13;;;;;;;;;;;;;;;11.01;100.00;100499.41;5048305;28;20025;-64
2023/03/30 07:10:39;;;;;;;9.90;3.33;;;;;;;11.01;100.00;100496.75;5052671;28;19913;-64
2023/03/30 07:13:06;;;;;;;13.25;3.30;;;;;;;11.04;100.00;100502.66;5053801;28;20024;-63
2023/03/30 07:15:31;;;;;;;9.55;2.72;;;;;;;11.08;100.00;100503.22;5053502;28;20124;-63
2023/03/30 07:17:57;;;;;;;10.32;3.10;;;;;;;11.13;100.00;100501.03;5045841;28;20108;-63
2023/03/30 07:20:22;;;;;;;11.02;3.38;;;;;;;11.21;100.00;100509.19;5055865;28;20487;-61
2023/03/30 07:22:47;;;;;;;6.65;2.60;;;;;;;11.28;100.00;100505.03;5046401;28;20123;-62
2023/03/30 07:25:13;;;;;;;11.85;3.15;;;;;;;11.40;100.00;100512.94;5033227;28;20029;-62
2023/03/30 07:27:39;;;;;;;11.25;2.78;;;;;;;11.59;100.00;100507.75;5048078;28;20367;-62
2023/03/30 07:30:06;;;;;;;15.95;3.50;;;;;;;11.68;100.00;100511.41;5047782;28;20025;-60
2023/03/30 07:32:32;;;;;;;10.05;3.22;;;;;;;11.76;100.00;100516.91;5045812;28;20386;-63
2023/03/30 07:34:57;;;;;;;9.10;3.10;;;;;;;11.84;100.00;100509.09;5053093;28;20020;-62
2023/03/30 07:37:23;;;;;;;12.23;3.00;;;;;;;11.88;100.00;100514.16;5057379;28;20405;-60
2023/03/30 07:39:49;;;;;;;14.95;2.85;;;;;;;11.91;100.00;100512.09;5060096;28;20079;-62
2023/03/30 07:42:14;;;;;;;10.73;3.03;;;;;;;11.94;100.00;100522.50;5049153;28;20492;-62
2023/03/30 07:44:40;;;;;;;17.77;3.75;;;;;;;11.96;100.00;100533.84;5069193;28;20027;-62
2023/03/30 07:47:05;;;;;;;13.50;3.30;;;;;;;11.98;100.00;100523.88;5054083;28;20036;-62
2023/03/30 07:49:32;;;;;;;15.05;3.40;;;;;;;12.01;100.00;100533.44;5058513;28;20695;-62
2023/03/30 07:51:58;;;;;;;14.10;3.17;;;;;;;12.04;100.00;100533.19;5063972;28;20496;-63
2023/03/30 07:54:23;;;;;;;14.45;3.20;;;;;;;12.08;100.00;100533.75;5052384;28;20029;-63
2023/03/30 07:56:51;;;;;;;11.10;2.90;;;;;;;12.12;100.00;100535.97;5059750;28;20029;-62
2023/03/30 07:59:21;;;;;;;12.02;2.85;;;;;;;12.17;99.98;100548.88;5053563;28;20017;-62
2023/03/30 08:01:49;;;;;;;16.45;2.97;;;;;;;12.22;99.87;100551.97;5049718;28;20482;-62
2023/03/30 08:04:15;;;;;;;14.70;3.33;;;;;;;12.26;97.45;100556.06;5053166;28;20044;-63
2023/03/30 08:06:40;;;;;;;16.23;3.50;;;;;;;12.29;97.67;100565.59;5047513;28;20030;-62
2023/03/30 08:09:06;;;;;;;16.38;3.10;;;;;;;12.32;97.61;100558.22;5050804;28;20517;-63
2023/03/30 08:11:34;;;;;;;12.40;3.03;;;;;;;12.38;98.86;100559.47;5047898;28;20047;-63
2023/03/30 08:13:59;;;;;;;14.73;3.03;;;;;;;12.43;98.54;100562.56;5050648;28;20413;-63
2023/03/30 08:16:25;;;;;;;19.55;3.30;;;;;;;12.49;97.40;100561.16;5050636;28;20074;-63
2023/03/30 08:18:53;;;;;;;13.15;3.38;;;;;;;12.52;98.42;100559.09;5049051;28;20036;-62
2023/03/30 08:21:20;;;;;;;13.02;2.67;;;;;;;12.56;96.96;100571.16;5052203;28;20036;-62
2023/03/30 08:23:45;;;;;;;12.70;2.90;;;;;;;12.56;95.92;100565.81;5055863;28;20029;-62
2023/03/30 08:26:10;;;;;;;14.82;2.97;;;;;;;12.58;95.68;100573.69;5063458;28;20046;-63
2023/03/30 08:28:36;;;;;;;15.38;3.55;;;;;;;12.58;91.91;100576.34;5033375;28;20021;-63
2023/03/30 08:31:04;;;;;;;13.18;3.45;;;;;;;12.57;90.90;100567.50;5039093;28;20041;-63
2023/03/30 08:33:30;;;;;;;15.98;3.35;;;;;;;12.63;91.13;100567.94;5043492;28;20024;-63
2023/03/30 08:35:56;;;;;;;14.95;3.58;;;;;;;12.68;88.72;100569.19;5048672;28;20028;-63
2023/03/30 08:38:21;;;;;;;16.08;3.40;;;;;;;12.86;88.57;100556.03;5038802;28;20025;-63
2023/03/30 08:40:48;;;;;;;17.65;3.90;;;;;;;13.07;87.41;100566.56;5035077;28;20071;-63
2023/03/30 08:43:40;;;;;;;18.20;3.40;;;;;;;13.31;87.54;100560.78;5035401;28;20070;-63
2023/03/30 08:46:13;;;;;;;14.52;3.40;;;;;;;13.51;84.70;100564.28;5035575;28;20082;-63
2023/03/30 08:48:41;;;;;;;11.75;3.38;;;;;;;13.72;83.50;100573.09;5045973;28;20792;-63
2023/03/30 08:51:25;;;;;;;17.77;3.60;;;;;;;13.90;83.97;100567.84;5043217;28;20068;-62
2023/03/30 08:53:55;;;;;;;19.35;3.42;;;;;;;13.98;81.78;100573.31;5034704;28;20029;-62
2023/03/30 08:57:00;;;;;;;14.23;3.17;;;;;;;14.04;81.81;100570.88;5033508;28;20025;-62
2023/03/30 08:59:34;;;;;;;17.00;3.33;;;;;;;14.08;79.26;100582.13;5047230;28;20072;-63
2023/03/30 09:02:11;;;;;;;18.88;3.90;;;;;;;14.16;79.18;100562.69;5052975;28;20115;-63
2023/03/30 09:05:00;;;;;;;18.23;4.10;;;;;;;14.20;78.05;100575.56;5032165;28;20018;-62
2023/03/30 09:07:35;;;;;;;14.02;3.15;;;;;;;14.27;76.01;100567.81;5037669;28;20040;-63
2023/03/30 09:10:02;;;;;;;13.80;3.20;;;;;;;14.27;75.34;100572.31;5048093;28;20505;-63
2023/03/30 09:12:49;;;;;;;15.23;3.30;;;;;;;14.37;77.35;100571.31;5042100;28;20026;-62
2023/03/30 09:15:19;;;;;;;11.95;3.03;;;;;;;14.33;74.67;100588.59;5068789;28;20023;-62
2023/03/30 09:18:00;;;;;;;17.25;3.42;;;;;;;14.27;75.81;100586.50;5047821;28;20036;-62
2023/03/30 09:20:32;;;;;;;17.02;3.55;;;;;;;14.16;74.42;100589.41;5045758;28;20466;-62
2023/03/30 09:23:00;;;;;;;13.68;3.17;;;;;;;14.05;74.82;100612.63;5062445;28;20444;-63
2023/03/30 09:25:44;;;;;;;16.73;3.35;;;;;;;14.01;75.62;100599.72;5064464;28;20500;-63
2023/03/30 09:28:52;;;;;;;15.70;3.53;;;;;;;13.95;75.90;100616.31;5044396;28;20462;-63
2023/03/30 09:31:52;;;;;;;12.73;3.25;;;;;;;14.04;75.05;100599.44;5064694;28;20438;-63
2023/03/30 09:34:28;;;;;;;16.25;3.47;;;;;;;14.18;73.70;100606.94;5038996;28;20138;-63
2023/03/30 09:37:08;;;;;;;16.00;4.15;;;;;;;14.34;74.10;100611.66;5042315;28;20158;-62
2023/03/30 09:39:35;;;;;;;19.70;3.90;;;;;;;14.51;74.55;100604.69;5048713;28;20050;-63
2023/03/30 09:42:03;;;;;;;18.67;4.22;;;;;;;14.65;70.67;100613.22;5047871;28;20163;-63
2023/03/30 09:44:50;;;;;;;17.65;3.95;;;;;;;14.74;72.33;100607.81;5047665;28;20123;-63
2023/03/30 09:47:31;;;;;;;14.77;3.50;;;;;;;14.86;72.53;100610.28;5048141;28;20537;-63
2023/03/30 09:49:59;;;;;;;19.92;4.40;;;;;;;14.92;69.36;100606.97;5048142;28;20059;-63
2023/03/30 09:52:28;;;;;;;15.98;4.35;;;;;;;14.92;70.82;100615.00;5049104;28;20041;-63
2023/03/30 09:54:54;;;;;;;20.67;3.95;;;;;;;14.97;69.49;100623.41;5045496;28;20404;-62
2023/03/30 09:57:31;;;;;;;18.60;3.95;;;;;;;15.12;70.89;100623.72;5050231;28;20025;-63
2023/03/30 09:59:58;;;;;;;14.90;4.18;;;;;;;15.07;68.44;100628.69;5049191;28;20102;-63
2023/03/30 10:02:26;;;;;;;18.20;4.15;;;;;;;15.04;69.51;100637.03;5048780;28;20021;-63
2023/03/30 10:04:51;;;;;;;14.55;3.80;;;;;;;14.98;69.07;100636.63;5038975;28;20047;-63
2023/03/30 10:07:40;;;;;;;18.43;4.17;;;;;;;14.93;69.59;100633.59;5047377;28;20033;-63
2023/03/30 10:10:14;;;;;;;15.70;4.07;;;;;;;14.84;69.12;100633.63;5050627;28;20310;-63
2023/03/30 10:12:39;;;;;;;18.52;4.15;;;;;;;14.71;68.54;100634.03;5050231;28;20072;-63
2023/03/30 10:15:11;;;;;;;16.27;4.15;;;;;;;14.65;68.50;100634.59;5054475;28;20032;-63
2023/03/30 10:17:40;;;;;;;16.33;3.65;;;;;;;14.64;70.43;100648.94;5048923;28;20036;-63
2023/03/30 10:20:22;;;;;;;16.98;4.15;;;;;;;14.77;71.58;100641.41;5050949;28;20025;-63
2023/03/30 10:22:55;;;;;;;19.75;4.25;;;;;;;14.81;70.11;100645.50;5044577;28;20112;-63
2023/03/30 10:25:26;;;;;;;15.98;4.22;;;;;;;14.97;72.06;100639.47;5044092;28;20094;-62
2023/03/30 10:27:55;;;;;;;18.02;4.25;;;;;;;15.01;70.09;100648.06;5057246;28;20508;-63
2023/03/30 10:30:24;;;;;;;19.38;4.07;;;;;;;14.95;69.13;100634.28;5048731;28;20482;-63
2023/03/30 10:32:51;;;;;;;16.25;4.10;;;;;;;15.01;70.16;100646.22;5050522;28;20103;-63
2023/03/30 10:35:22;;;;;;;18.98;3.90;;;;;;;15.02;69.55;100639.88;5052049;28;20029;-63
2023/03/30 10:37:51;;;;;;;17.23;4.47;;;;;;;15.11;70.95;100638.94;5047394;28;20041;-63
2023/03/30 10:40:31;;;;;;;15.90;3.78;;;;;;;15.26;69.07;100649.97;5051108;28;20060;-63
2023/03/30 10:42:57;;;;;;;17.77;3.90;;;;;;;15.36;66.88;100644.53;5045341;28;20029;-63
2023/03/30 10:45:31;;;;;;;18.63;3.25;;;;;;;15.41;66.85;100652.09;5048870;28;20029;-63
2023/03/30 10:48:33;;;;;;;16.42;3.92;;;;;;;15.40;67.01;100645.06;5039638;28;20037;-63
2023/03/30 10:51:26;;;;;;;15.70;3.83;;;;;;;15.48;67.34;100647.81;5056093;28;20094;-62
2023/03/30 10:54:10;;;;;;;14.77;3.50;;;;;;;15.67;65.99;100641.44;5040351;28;20041;-63
2023/03/30 10:56:43;;;;;;;12.48;3.30;;;;;;;15.82;66.41;100644.41;5060706;28;20028;-63
2023/03/30 10:59:46;;;;;;;14.55;4.47;;;;;;;15.95;67.37;100644.84;5062345;28;20037;-63
2023/03/30 11:02:50;;;;;;;17.08;3.25;;;;;;;16.08;65.88;100639.06;5049856;28;20457;-63
2023/03/30 11:05:25;;;;;;;14.25;3.30;;;;;;;15.96;64.11;100641.16;5061959;28;20076;-62
2023/03/30 11:07:58;;;;;;;16.42;3.55;;;;;;;15.81;64.46;100651.63;5060265;28;20024;-63
2023/03/30 11:10:35;;;;;;;19.08;3.72;;;;;;;15.82;64.78;100639.91;5053408;28;20033;-63
2023/03/30 11:13:14;;;;;;;19.10;3.85;;;;;;;16.03;65.34;100638.69;5045509;28;20487;-63
2023/03/30 11:15:56;;;;;;;17.08;4.35;;;;;;;16.18;63.75;100634.41;5046987;28;20525;-63
2023/03/30 11:18:41;;;;;;;13.52;4.00;;;;;;;16.29;63.29;100638.69;5035556;28;20095;-62
2023/03/30 11:21:09;;;;;;;15.35;3.90;;;;;;;16.33;63.87;100626.63;5046428;28;20033;-63
2023/03/30 11:23:44;;;;;;;16.13;3.75;;;;;;;16.35;63.00;100638.03;5035557;28;20060;-63
2023/03/30 11:26:14;;;;;;;15.10;3.35;;;;;;;16.22;63.07;100643.84;5069809;28;20025;-63
2023/03/30 11:28:53;;;;;;;17.98;4.40;;;;;;;16.21;63.78;100642.16;5050838;28;20087;-63
2023/03/30 11:31:39;;;;;;;15.20;3.50;;;;;;;16.13;63.14;100641.28;5045242;28;20136;-63
2023/03/30 11:34:20;;;;;;;12.73;3.78;;;;;;;16.13;64.40;100639.41;5057496;28;20492;-63
2023/03/30 11:37:16;;;;;;;12.48;3.30;;;;;;;16.03;64.75;100636.84;5051721;28;20024;-62